Skip Navigation LinksHome page > Weather > Current weather Skip Navigation Links

Current Weather

Baltimore-Washington Intl, Baltimore

For information only: do not use for flight planning or navigation.
Latest weather
Observation time Wednesday, January 27, 2021 9:54 AM EST
Local time Wednesday, January 27, 2021 10:45 AM EST
Flight conditions Visual Meteorological Conditions
Winds
Wind direction West-Northwest (290°)
Wind speed 8 mph
Visibility 10 mi.
Sky condition
Ceiling 3,800 ft. broken clouds
Cloud layer few clouds 2,500 ft.
Cloud layer broken clouds 3,800 ft.
Temperature 40°F
Dewpoint 30°F
Altimeter 30.10 in.Hg
Pressure change last 3 hours-0.07 in.Hg
Pressure rising more slowly
Derived measurements
Relative humidity 67%
Wind chill 34°F
Density altitude -1256 ft.
Sea-level pressure 30.10 in.Hg
Remarks
Automated weather observing station with precipitation discriminator.
METAR KBWI 271454Z 29007KT 10SM FEW025 BKN038 04/M01 A3010 RMK AO2 SLP193 T00441011 51024

Settings

Location code

InnerDrive.Weather 4.0.6770.0 Release CLR 4.0.30319.42000
Copyright ©2018 Inner Drive Technology. All rights reserved. Portions Copyright ©1986-2018 David Braverman.

Find weather

Site navigation


Skip Navigation Links

Place info

Page info

PayPal - The safer, easier way to pay online!

Return home.

Copyright ©2021 Inner Drive Technology. Purveyors of fine, hand-crafted computer software. Page printed 2021-01-27T15:45:37 UTC.